METAR Data
IDs: Format: Raw Decoded Include TAF

Data at: 1319 UTC 10 Aug 2022

KSEE 101315Z AUTO 28004KT 10SM CLR 21/17 A2996 RMK AO2
KSEE 101255Z AUTO 29003KT 10SM CLR 21/17 A2996 RMK AO2
KSEE 101235Z AUTO 00000KT 10SM CLR 21/17 A2996 RMK AO2
KSEE 101215Z AUTO 00000KT 10SM CLR 21/17 A2995 RMK AO2
KSEE 101155Z AUTO 27003KT 10SM CLR 21/17 A2995 RMK AO2
KSEE 101135Z AUTO 29003KT 10SM CLR 21/18 A2995 RMK AO2
KSEE 101115Z AUTO 00000KT 10SM CLR 21/18 A2995 RMK AO2
KSEE 101055Z AUTO 00000KT 10SM CLR 22/18 A2996 RMK AO2
KSEE 101035Z AUTO 31003KT 10SM CLR 22/18 A2996 RMK AO2
KSEE 101015Z AUTO 00000KT 10SM CLR 22/18 A2996 RMK AO2
KSEE 100955Z AUTO 00000KT 10SM CLR 22/18 A2996 RMK AO2
KSEE 100935Z AUTO 00000KT 10SM CLR 22/18 A2996 RMK AO2
KSEE 100915Z AUTO 00000KT 10SM CLR 23/18 A2996 RMK AO2
KSEE 100855Z AUTO 29004KT 10SM CLR 22/19 A2996 RMK AO2
KSEE 100835Z AUTO 00000KT 10SM CLR 23/19 A2996 RMK AO2
KSEE 100815Z AUTO 28004KT 10SM CLR 23/19 A2996 RMK AO2
KSEE 100755Z AUTO 30004KT 10SM CLR 23/19 A2996 RMK AO2
KSEE 100735Z AUTO 31003KT 10SM CLR 23/18 A2996 RMK AO2
KSEE 100715Z AUTO 29003KT 10SM CLR 23/18 A2997 RMK AO2
KSEE 100655Z AUTO 29003KT 10SM CLR 24/17 A2997 RMK AO2
KSEE 100635Z AUTO 29004KT 10SM CLR 24/17 A2997 RMK AO2
KSEE 100615Z AUTO 29004KT 10SM CLR 24/16 A2997 RMK AO2
KSEE 100555Z AUTO 30003KT 10SM CLR 24/17 A2997 RMK AO2
KSEE 100535Z AUTO 22003KT 10SM CLR 24/18 A2997 RMK AO2
KSEE 100515Z AUTO 23003KT 10SM CLR 25/18 A2997 RMK AO2
KSEE 100455Z AUTO 22003KT 10SM CLR 25/18 A2997 RMK AO2
KSEE 100435Z AUTO 23004KT 10SM CLR 26/17 A2996 RMK AO2
KSEE 100415Z AUTO 22003KT 10SM CLR 26/17 A2995 RMK AO2
KSEE 100355Z AUTO 22003KT 10SM CLR 26/17 A2994 RMK AO2
KSEE 100347Z VRB04KT 10SM SKC 27/18 A2995
KSEE 100247Z 23007KT 10SM SKC 29/08 A2992
KSEE 100147Z 26005KT 10SM SKC 31/11 A2991
KSEE 100059Z 24006KT 10SM SKC 31/13 A2990
KSEE 092347Z 24005KT 10SM SKC 31/14 A2991
KSEE 092247Z 27006KT 10SM SKC 32/17 A2991 RMK TCU DSNT N-E
KSEE 092147Z 23009KT 10SM SKC 32/18 A2992 RMK TCU DSNT N-E
KSEE 092047Z 26011G17KT 10SM SKC 32/18 A2992 RMK TCU DSNT N-E
KSEE 091955Z 22010KT 10SM SKC 33/18 A2993 RMK TCU DSNT N-E
KSEE 091847Z 23008KT 10SM SKC 33/18 A2993
KSEE 091749Z VRB04KT 10SM SKC 32/18 A2994
KSEE 091647Z 00000KT 10SM 28/19 A2995
KSEE 091547Z 00000KT 10SM 26/19 A2996
KSEE 091447Z 00000KT 10SM 23/19 A2995
KSEE 091347Z 00000KT 10SM 21/18 A2992
KSEE 091335Z AUTO 29004KT 10SM CLR 21/18 A2992 RMK AO2
KSEE 091315Z AUTO 00000KT 10SM CLR 21/18 A2992 RMK AO2
KSEE 091255Z AUTO 00000KT 10SM CLR 21/18 A2991 RMK AO2
KSEE 091235Z AUTO 00000KT 10SM CLR 21/18 A2991 RMK AO2
KSEE 091215Z AUTO 00000KT 10SM CLR 21/18 A2990 RMK AO2
KSEE 091155Z AUTO 00000KT 10SM CLR 21/18 A2990 RMK AO2
KSEE 091135Z AUTO 00000KT 10SM CLR 22/18 A2990 RMK AO2
KSEE 091115Z AUTO 00000KT 10SM CLR 21/18 A2990 RMK AO2
KSEE 091055Z AUTO 28003KT 10SM CLR 21/19 A2990 RMK AO2
KSEE 091035Z AUTO 00000KT 10SM CLR 22/19 A2990 RMK AO2
KSEE 091015Z AUTO 32003KT 10SM CLR 21/18 A2990 RMK AO2
KSEE 090955Z AUTO 29003KT 10SM CLR 21/19 A2990 RMK AO2
KSEE 090935Z AUTO 30003KT 10SM CLR 22/19 A2990 RMK AO2
KSEE 090915Z AUTO 30004KT 10SM CLR 22/19 A2990 RMK AO2
KSEE 090855Z AUTO 29003KT 10SM CLR 22/19 A2990 RMK AO2
KSEE 090835Z AUTO 00000KT 10SM CLR 22/19 A2991 RMK AO2
KSEE 090815Z AUTO 00000KT 10SM CLR 22/18 A2991 RMK AO2
KSEE 090755Z AUTO 00000KT 10SM CLR 22/19 A2992 RMK AO2
KSEE 090735Z AUTO 29004KT 10SM CLR 23/19 A2992 RMK AO2
KSEE 090715Z AUTO 29003KT 10SM CLR 23/19 A2993 RMK AO2
KSEE 090655Z AUTO 29004KT 10SM CLR 23/19 A2993 RMK AO2
KSEE 090635Z AUTO 00000KT 10SM CLR 23/19 A2994 RMK AO2
KSEE 090615Z AUTO 30003KT 10SM CLR 23/19 A2993 RMK AO2
KSEE 090555Z AUTO 28003KT 10SM CLR 23/19 A2993 RMK AO2
KSEE 090535Z AUTO 00000KT 10SM CLR 24/20 A2994 RMK AO2
KSEE 090515Z AUTO 00000KT 10SM CLR 24/19 A2993 RMK AO2
KSEE 090455Z AUTO 00000KT 10SM CLR 24/19 A2993 RMK AO2
KSEE 090435Z AUTO 00000KT 10SM CLR 24/19 A2992 RMK AO2
KSEE 090415Z AUTO 00000KT 10SM FEW042 SCT055 BKN065 24/18 A2992 RMK AO2
KSEE 090355Z AUTO 00000KT 10SM FEW042 BKN050 BKN070 24/18 A2992 RMK AO2 P0002
KSEE 090347Z 00000KT 10SM FEW 043 BKN050 BKN070 25/18 A2992
KSEE 090247Z 00000KT 10SM FEW 049 SCT060 BKN090 26/15 A2992
KSEE 090147Z 22005KT 10SM SCT060 SCT075 BKN100 28/12 A2991 RMK TCU DSNT N-SE